sensor_id;sensor_type;location;lat;lon;timestamp;temperature;humidity
72883;DHT22;61017;37.812;-122.286;2024-01-16T00:01:29;16.30;78.60
72883;DHT22;61017;37.812;-122.286;2024-01-16T00:03:00;16.40;77.80
72883;DHT22;61017;37.812;-122.286;2024-01-16T00:04:31;16.40;77.60
72883;DHT22;61017;37.812;-122.286;2024-01-16T00:06:02;16.40;77.30
72883;DHT22;61017;37.812;-122.286;2024-01-16T00:07:34;16.40;77.10
72883;DHT22;61017;37.812;-122.286;2024-01-16T00:09:05;16.40;76.70
72883;DHT22;61017;37.812;-122.286;2024-01-16T00:10:36;16.40;76.30
72883;DHT22;61017;37.812;-122.286;2024-01-16T00:12:07;16.40;76.80
72883;DHT22;61017;37.812;-122.286;2024-01-16T00:13:38;16.40;78.00
72883;DHT22;61017;37.812;-122.286;2024-01-16T00:15:09;16.30;77.90
72883;DHT22;61017;37.812;-122.286;2024-01-16T00:16:46;16.40;77.00
72883;DHT22;61017;37.812;-122.286;2024-01-16T00:18:17;16.50;76.60
72883;DHT22;61017;37.812;-122.286;2024-01-16T00:19:49;16.50;76.80
72883;DHT22;61017;37.812;-122.286;2024-01-16T00:21:20;16.50;75.60
72883;DHT22;61017;37.812;-122.286;2024-01-16T00:22:51;16.50;75.80
72883;DHT22;61017;37.812;-122.286;2024-01-16T00:24:22;16.50;76.20
72883;DHT22;61017;37.812;-122.286;2024-01-16T00:25:53;16.40;76.90
72883;DHT22;61017;37.812;-122.286;2024-01-16T00:27:24;16.50;76.40
72883;DHT22;61017;37.812;-122.286;2024-01-16T00:28:55;16.50;75.60
72883;DHT22;61017;37.812;-122.286;2024-01-16T00:30:27;16.50;74.70
72883;DHT22;61017;37.812;-122.286;2024-01-16T00:31:58;16.50;74.40
72883;DHT22;61017;37.812;-122.286;2024-01-16T00:33:29;16.50;74.40
72883;DHT22;61017;37.812;-122.286;2024-01-16T00:35:00;16.50;74.30
72883;DHT22;61017;37.812;-122.286;2024-01-16T00:36:31;16.50;75.60
72883;DHT22;61017;37.812;-122.286;2024-01-16T00:38:02;16.40;74.80
72883;DHT22;61017;37.812;-122.286;2024-01-16T00:39:33;16.50;74.50
72883;DHT22;61017;37.812;-122.286;2024-01-16T00:41:04;16.50;73.90
72883;DHT22;61017;37.812;-122.286;2024-01-16T00:42:35;16.60;72.70
72883;DHT22;61017;37.812;-122.286;2024-01-16T00:44:06;16.60;71.60
72883;DHT22;61017;37.812;-122.286;2024-01-16T00:45:38;16.70;72.00
72883;DHT22;61017;37.812;-122.286;2024-01-16T00:47:09;16.60;72.60
72883;DHT22;61017;37.812;-122.286;2024-01-16T00:48:40;16.60;73.30
72883;DHT22;61017;37.812;-122.286;2024-01-16T00:50:11;16.60;73.30
72883;DHT22;61017;37.812;-122.286;2024-01-16T00:51:42;16.60;73.00
72883;DHT22;61017;37.812;-122.286;2024-01-16T00:53:16;16.60;71.70
72883;DHT22;61017;37.812;-122.286;2024-01-16T00:54:47;16.70;71.10
72883;DHT22;61017;37.812;-122.286;2024-01-16T00:56:18;16.80;70.30
72883;DHT22;61017;37.812;-122.286;2024-01-16T00:57:49;16.80;70.30
72883;DHT22;61017;37.812;-122.286;2024-01-16T00:59:22;16.90;71.90
72883;DHT22;61017;37.812;-122.286;2024-01-16T01:00:53;16.80;72.60
72883;DHT22;61017;37.812;-122.286;2024-01-16T01:02:24;16.70;74.40
72883;DHT22;61017;37.812;-122.286;2024-01-16T01:03:58;16.60;75.10
72883;DHT22;61017;37.812;-122.286;2024-01-16T01:05:29;16.40;75.80
72883;DHT22;61017;37.812;-122.286;2024-01-16T01:07:00;16.40;76.50
72883;DHT22;61017;37.812;-122.286;2024-01-16T01:08:31;16.30;77.00
72883;DHT22;61017;37.812;-122.286;2024-01-16T01:10:02;16.30;77.50
72883;DHT22;61017;37.812;-122.286;2024-01-16T01:11:33;16.30;78.10
72883;DHT22;61017;37.812;-122.286;2024-01-16T01:13:05;16.20;78.40
72883;DHT22;61017;37.812;-122.286;2024-01-16T01:14:36;16.20;78.80
72883;DHT22;61017;37.812;-122.286;2024-01-16T01:16:07;16.20;79.20
72883;DHT22;61017;37.812;-122.286;2024-01-16T01:17:38;16.20;79.50
72883;DHT22;61017;37.812;-122.286;2024-01-16T01:19:09;16.10;79.80
72883;DHT22;61017;37.812;-122.286;2024-01-16T01:20:41;16.10;80.10
72883;DHT22;61017;37.812;-122.286;2024-01-16T01:22:12;16.10;80.30
72883;DHT22;61017;37.812;-122.286;2024-01-16T01:23:43;16.10;80.60
72883;DHT22;61017;37.812;-122.286;2024-01-16T01:25:14;16.10;80.80
72883;DHT22;61017;37.812;-122.286;2024-01-16T01:26:45;16.10;81.10
72883;DHT22;61017;37.812;-122.286;2024-01-16T01:28:17;16.00;81.40
72883;DHT22;61017;37.812;-122.286;2024-01-16T01:29:48;16.00;81.60
72883;DHT22;61017;37.812;-122.286;2024-01-16T01:31:19;16.00;81.90
72883;DHT22;61017;37.812;-122.286;2024-01-16T01:32:52;16.00;82.00
72883;DHT22;61017;37.812;-122.286;2024-01-16T01:34:23;16.00;82.20
72883;DHT22;61017;37.812;-122.286;2024-01-16T01:35:54;16.00;82.40
72883;DHT22;61017;37.812;-122.286;2024-01-16T01:37:25;16.00;82.50
72883;DHT22;61017;37.812;-122.286;2024-01-16T01:38:57;16.00;82.80
72883;DHT22;61017;37.812;-122.286;2024-01-16T01:40:28;16.00;82.90
72883;DHT22;61017;37.812;-122.286;2024-01-16T01:41:59;15.90;82.90
72883;DHT22;61017;37.812;-122.286;2024-01-16T01:43:31;15.90;83.00
72883;DHT22;61017;37.812;-122.286;2024-01-16T01:45:02;15.90;83.20
72883;DHT22;61017;37.812;-122.286;2024-01-16T01:46:34;15.90;83.20
72883;DHT22;61017;37.812;-122.286;2024-01-16T01:48:05;15.90;83.50
72883;DHT22;61017;37.812;-122.286;2024-01-16T01:49:37;15.90;83.60
72883;DHT22;61017;37.812;-122.286;2024-01-16T01:51:09;15.90;83.60
72883;DHT22;61017;37.812;-122.286;2024-01-16T01:52:40;15.90;83.80
72883;DHT22;61017;37.812;-122.286;2024-01-16T01:54:13;15.90;84.00
72883;DHT22;61017;37.812;-122.286;2024-01-16T01:55:44;15.90;84.00
72883;DHT22;61017;37.812;-122.286;2024-01-16T01:57:16;15.90;84.10
72883;DHT22;61017;37.812;-122.286;2024-01-16T01:58:48;15.90;84.20
72883;DHT22;61017;37.812;-122.286;2024-01-16T02:00:20;15.90;84.20
72883;DHT22;61017;37.812;-122.286;2024-01-16T02:01:52;15.90;84.30
72883;DHT22;61017;37.812;-122.286;2024-01-16T02:03:23;15.90;84.40
72883;DHT22;61017;37.812;-122.286;2024-01-16T02:04:57;15.80;84.40
72883;DHT22;61017;37.812;-122.286;2024-01-16T02:06:28;15.80;84.50
72883;DHT22;61017;37.812;-122.286;2024-01-16T02:07:59;15.80;84.50
72883;DHT22;61017;37.812;-122.286;2024-01-16T02:09:31;15.80;84.60
72883;DHT22;61017;37.812;-122.286;2024-01-16T02:11:03;15.80;84.70
72883;DHT22;61017;37.812;-122.286;2024-01-16T02:12:36;15.90;84.80
72883;DHT22;61017;37.812;-122.286;2024-01-16T02:14:07;15.80;84.70
72883;DHT22;61017;37.812;-122.286;2024-01-16T02:15:39;15.80;84.70
72883;DHT22;61017;37.812;-122.286;2024-01-16T02:17:10;15.80;84.80
72883;DHT22;61017;37.812;-122.286;2024-01-16T02:18:41;15.80;84.90
72883;DHT22;61017;37.812;-122.286;2024-01-16T02:20:12;15.80;84.90
72883;DHT22;61017;37.812;-122.286;2024-01-16T02:21:47;15.80;85.10
72883;DHT22;61017;37.812;-122.286;2024-01-16T02:23:24;15.80;85.10
72883;DHT22;61017;37.812;-122.286;2024-01-16T02:24:57;15.80;85.20
72883;DHT22;61017;37.812;-122.286;2024-01-16T02:26:28;15.80;85.20
72883;DHT22;61017;37.812;-122.286;2024-01-16T02:28:00;15.80;85.40
72883;DHT22;61017;37.812;-122.286;2024-01-16T02:29:31;15.80;85.30
72883;DHT22;61017;37.812;-122.286;2024-01-16T02:31:02;15.80;85.40
72883;DHT22;61017;37.812;-122.286;2024-01-16T02:32:33;15.80;85.40
72883;DHT22;61017;37.812;-122.286;2024-01-16T02:34:04;15.80;85.50
72883;DHT22;61017;37.812;-122.286;2024-01-16T02:35:35;15.70;86.20
72883;DHT22;61017;37.812;-122.286;2024-01-16T02:37:06;15.70;85.40
72883;DHT22;61017;37.812;-122.286;2024-01-16T02:38:37;15.70;85.50
72883;DHT22;61017;37.812;-122.286;2024-01-16T02:40:09;15.70;85.50
72883;DHT22;61017;37.812;-122.286;2024-01-16T02:41:40;15.70;85.60
72883;DHT22;61017;37.812;-122.286;2024-01-16T02:43:11;15.70;85.70
72883;DHT22;61017;37.812;-122.286;2024-01-16T02:44:43;15.70;85.70
72883;DHT22;61017;37.812;-122.286;2024-01-16T02:46:14;15.70;85.60
72883;DHT22;61017;37.812;-122.286;2024-01-16T02:47:45;15.70;85.70
72883;DHT22;61017;37.812;-122.286;2024-01-16T02:49:16;15.70;85.80
72883;DHT22;61017;37.812;-122.286;2024-01-16T02:50:47;15.70;85.70
72883;DHT22;61017;37.812;-122.286;2024-01-16T02:52:19;15.70;85.80
72883;DHT22;61017;37.812;-122.286;2024-01-16T02:53:50;15.70;85.80
72883;DHT22;61017;37.812;-122.286;2024-01-16T02:55:21;15.70;85.80
72883;DHT22;61017;37.812;-122.286;2024-01-16T02:56:52;15.70;85.80
72883;DHT22;61017;37.812;-122.286;2024-01-16T02:58:23;15.70;85.80
72883;DHT22;61017;37.812;-122.286;2024-01-16T02:59:54;15.70;85.80
72883;DHT22;61017;37.812;-122.286;2024-01-16T03:01:25;15.70;85.80
72883;DHT22;61017;37.812;-122.286;2024-01-16T03:02:56;15.70;85.80
72883;DHT22;61017;37.812;-122.286;2024-01-16T03:04:27;15.70;86.00
72883;DHT22;61017;37.812;-122.286;2024-01-16T03:05:59;15.70;85.90
72883;DHT22;61017;37.812;-122.286;2024-01-16T03:07:30;15.70;86.00
72883;DHT22;61017;37.812;-122.286;2024-01-16T03:09:01;15.70;86.00
72883;DHT22;61017;37.812;-122.286;2024-01-16T03:10:32;15.70;86.00
72883;DHT22;61017;37.812;-122.286;2024-01-16T03:12:04;15.70;85.90
72883;DHT22;61017;37.812;-122.286;2024-01-16T03:13:35;15.70;86.00
72883;DHT22;61017;37.812;-122.286;2024-01-16T03:15:06;15.70;86.00
72883;DHT22;61017;37.812;-122.286;2024-01-16T03:16:37;15.70;86.00
72883;DHT22;61017;37.812;-122.286;2024-01-16T03:18:08;15.70;86.00
72883;DHT22;61017;37.812;-122.286;2024-01-16T03:19:39;15.70;86.00
72883;DHT22;61017;37.812;-122.286;2024-01-16T03:21:13;15.70;86.00
72883;DHT22;61017;37.812;-122.286;2024-01-16T03:22:45;15.70;86.00
72883;DHT22;61017;37.812;-122.286;2024-01-16T03:24:16;15.70;86.00
72883;DHT22;61017;37.812;-122.286;2024-01-16T03:25:47;15.70;86.60
72883;DHT22;61017;37.812;-122.286;2024-01-16T03:27:18;16.00;84.30
72883;DHT22;61017;37.812;-122.286;2024-01-16T03:28:49;16.30;81.10
72883;DHT22;61017;37.812;-122.286;2024-01-16T03:30:20;16.50;78.70
72883;DHT22;61017;37.812;-122.286;2024-01-16T03:31:51;16.80;76.80
72883;DHT22;61017;37.812;-122.286;2024-01-16T03:33:25;16.90;75.30
72883;DHT22;61017;37.812;-122.286;2024-01-16T03:34:56;17.00;74.10
72883;DHT22;61017;37.812;-122.286;2024-01-16T03:36:30;17.10;73.10
72883;DHT22;61017;37.812;-122.286;2024-01-16T03:38:01;17.10;72.20
72883;DHT22;61017;37.812;-122.286;2024-01-16T03:39:32;17.20;71.90
72883;DHT22;61017;37.812;-122.286;2024-01-16T03:41:03;17.20;70.70
72883;DHT22;61017;37.812;-122.286;2024-01-16T03:42:34;17.30;70.70
72883;DHT22;61017;37.812;-122.286;2024-01-16T03:44:05;17.30;69.70
72883;DHT22;61017;37.812;-122.286;2024-01-16T03:45:37;17.30;69.70
72883;DHT22;61017;37.812;-122.286;2024-01-16T03:47:08;17.20;71.10
72883;DHT22;61017;37.812;-122.286;2024-01-16T03:48:39;16.90;73.00
72883;DHT22;61017;37.812;-122.286;2024-01-16T03:50:10;16.70;74.50
72883;DHT22;61017;37.812;-122.286;2024-01-16T03:51:41;16.90;72.60
72883;DHT22;61017;37.812;-122.286;2024-01-16T03:53:12;17.10;70.60
72883;DHT22;61017;37.812;-122.286;2024-01-16T03:54:44;17.40;69.50
72883;DHT22;61017;37.812;-122.286;2024-01-16T03:56:15;17.50;68.50
72883;DHT22;61017;37.812;-122.286;2024-01-16T03:57:46;17.50;68.40
72883;DHT22;61017;37.812;-122.286;2024-01-16T03:59:17;17.50;68.10
72883;DHT22;61017;37.812;-122.286;2024-01-16T04:00:48;17.20;70.80
72883;DHT22;61017;37.812;-122.286;2024-01-16T04:02:19;17.10;70.50
72883;DHT22;61017;37.812;-122.286;2024-01-16T04:03:50;17.30;68.90
72883;DHT22;61017;37.812;-122.286;2024-01-16T04:05:22;17.40;69.00
72883;DHT22;61017;37.812;-122.286;2024-01-16T04:06:53;17.50;68.00
72883;DHT22;61017;37.812;-122.286;2024-01-16T04:08:24;17.50;67.40
72883;DHT22;61017;37.812;-122.286;2024-01-16T04:09:55;17.50;66.70
72883;DHT22;61017;37.812;-122.286;2024-01-16T04:11:26;17.50;67.90
72883;DHT22;61017;37.812;-122.286;2024-01-16T04:12:59;17.20;69.60
72883;DHT22;61017;37.812;-122.286;2024-01-16T04:14:30;17.30;67.70
72883;DHT22;61017;37.812;-122.286;2024-01-16T04:16:01;17.50;67.00
72883;DHT22;61017;37.812;-122.286;2024-01-16T04:17:33;17.70;66.50
72883;DHT22;61017;37.812;-122.286;2024-01-16T04:19:04;17.80;65.70
72883;DHT22;61017;37.812;-122.286;2024-01-16T04:20:35;17.90;65.20
72883;DHT22;61017;37.812;-122.286;2024-01-16T04:22:06;18.00;65.10
72883;DHT22;61017;37.812;-122.286;2024-01-16T04:23:37;17.70;67.70
72883;DHT22;61017;37.812;-122.286;2024-01-16T04:25:08;17.50;68.10
72883;DHT22;61017;37.812;-122.286;2024-01-16T04:26:39;17.60;67.20
72883;DHT22;61017;37.812;-122.286;2024-01-16T04:28:10;17.70;66.40
72883;DHT22;61017;37.812;-122.286;2024-01-16T04:29:41;17.80;66.50
72883;DHT22;61017;37.812;-122.286;2024-01-16T04:31:12;17.90;66.30
72883;DHT22;61017;37.812;-122.286;2024-01-16T04:32:43;17.90;65.80
72883;DHT22;61017;37.812;-122.286;2024-01-16T04:34:14;17.80;66.60
72883;DHT22;61017;37.812;-122.286;2024-01-16T04:35:45;17.50;69.00
72883;DHT22;61017;37.812;-122.286;2024-01-16T04:37:16;17.60;67.70
72883;DHT22;61017;37.812;-122.286;2024-01-16T04:38:47;17.80;66.70
72883;DHT22;61017;37.812;-122.286;2024-01-16T04:40:18;17.80;66.70
72883;DHT22;61017;37.812;-122.286;2024-01-16T04:41:49;17.90;66.90
72883;DHT22;61017;37.812;-122.286;2024-01-16T04:43:20;17.90;65.90
72883;DHT22;61017;37.812;-122.286;2024-01-16T04:44:51;17.90;65.90
72883;DHT22;61017;37.812;-122.286;2024-01-16T04:46:22;17.70;67.50
72883;DHT22;61017;37.812;-122.286;2024-01-16T04:47:53;17.50;68.20
72883;DHT22;61017;37.812;-122.286;2024-01-16T04:49:24;17.70;67.00
72883;DHT22;61017;37.812;-122.286;2024-01-16T04:50:56;17.80;66.50
72883;DHT22;61017;37.812;-122.286;2024-01-16T04:52:27;17.90;65.80
72883;DHT22;61017;37.812;-122.286;2024-01-16T04:53:58;17.90;65.30
72883;DHT22;61017;37.812;-122.286;2024-01-16T04:55:29;18.00;64.90
72883;DHT22;61017;37.812;-122.286;2024-01-16T04:57:00;17.90;65.50
72883;DHT22;61017;37.812;-122.286;2024-01-16T04:58:31;17.60;67.60
72883;DHT22;61017;37.812;-122.286;2024-01-16T05:00:02;17.60;67.80
72883;DHT22;61017;37.812;-122.286;2024-01-16T05:01:34;17.70;67.20
72883;DHT22;61017;37.812;-122.286;2024-01-16T05:03:05;17.70;66.30
72883;DHT22;61017;37.812;-122.286;2024-01-16T05:04:39;17.80;65.90
72883;DHT22;61017;37.812;-122.286;2024-01-16T05:06:13;17.90;64.90
72883;DHT22;61017;37.812;-122.286;2024-01-16T05:07:44;17.90;64.50
72883;DHT22;61017;37.812;-122.286;2024-01-16T05:09:15;17.70;66.60
72883;DHT22;61017;37.812;-122.286;2024-01-16T05:10:46;17.50;67.10
72883;DHT22;61017;37.812;-122.286;2024-01-16T05:12:17;17.70;65.80
72883;DHT22;61017;37.812;-122.286;2024-01-16T05:13:48;17.80;65.50
72883;DHT22;61017;37.812;-122.286;2024-01-16T05:15:19;17.90;65.00
72883;DHT22;61017;37.812;-122.286;2024-01-16T05:16:51;17.80;65.90
72883;DHT22;61017;37.812;-122.286;2024-01-16T05:18:22;17.60;67.00
72883;DHT22;61017;37.812;-122.286;2024-01-16T05:19:53;17.30;68.50
72883;DHT22;61017;37.812;-122.286;2024-01-16T05:21:24;17.00;69.30
72883;DHT22;61017;37.812;-122.286;2024-01-16T05:22:55;16.90;69.90
72883;DHT22;61017;37.812;-122.286;2024-01-16T05:24:26;16.80;70.50
72883;DHT22;61017;37.812;-122.286;2024-01-16T05:25:57;16.70;71.00
72883;DHT22;61017;37.812;-122.286;2024-01-16T05:27:28;16.60;71.90
72883;DHT22;61017;37.812;-122.286;2024-01-16T05:28:59;16.60;72.50
72883;DHT22;61017;37.812;-122.286;2024-01-16T05:30:30;16.50;72.80
72883;DHT22;61017;37.812;-122.286;2024-01-16T05:32:01;16.50;73.10
72883;DHT22;61017;37.812;-122.286;2024-01-16T05:33:32;16.40;73.60
72883;DHT22;61017;37.812;-122.286;2024-01-16T05:35:03;16.40;74.00
72883;DHT22;61017;37.812;-122.286;2024-01-16T05:36:35;16.40;74.40
72883;DHT22;61017;37.812;-122.286;2024-01-16T05:38:06;16.40;74.90
72883;DHT22;61017;37.812;-122.286;2024-01-16T05:39:37;16.30;75.20
72883;DHT22;61017;37.812;-122.286;2024-01-16T05:41:08;16.30;75.60
72883;DHT22;61017;37.812;-122.286;2024-01-16T05:42:39;16.30;76.20
72883;DHT22;61017;37.812;-122.286;2024-01-16T05:44:10;16.30;76.20
72883;DHT22;61017;37.812;-122.286;2024-01-16T05:45:41;16.30;76.40
72883;DHT22;61017;37.812;-122.286;2024-01-16T05:47:12;16.20;76.80
72883;DHT22;61017;37.812;-122.286;2024-01-16T05:48:43;16.20;77.00
72883;DHT22;61017;37.812;-122.286;2024-01-16T05:50:35;16.20;77.40
72883;DHT22;61017;37.812;-122.286;2024-01-16T05:52:06;16.20;77.80
72883;DHT22;61017;37.812;-122.286;2024-01-16T05:53:38;16.10;78.10
72883;DHT22;61017;37.812;-122.286;2024-01-16T05:55:09;16.10;78.30
72883;DHT22;61017;37.812;-122.286;2024-01-16T05:56:41;16.10;78.70
72883;DHT22;61017;37.812;-122.286;2024-01-16T05:58:12;16.10;78.50
72883;DHT22;61017;37.812;-122.286;2024-01-16T05:59:43;16.10;78.80
72883;DHT22;61017;37.812;-122.286;2024-01-16T06:01:14;16.10;79.00
72883;DHT22;61017;37.812;-122.286;2024-01-16T06:06:06;16.00;79.40
72883;DHT22;61017;37.812;-122.286;2024-01-16T06:07:37;16.00;79.60
72883;DHT22;61017;37.812;-122.286;2024-01-16T06:09:08;16.00;79.60
72883;DHT22;61017;37.812;-122.286;2024-01-16T06:10:40;16.00;79.70
72883;DHT22;61017;37.812;-122.286;2024-01-16T06:12:11;16.00;79.80
72883;DHT22;61017;37.812;-122.286;2024-01-16T06:13:42;16.00;80.00
72883;DHT22;61017;37.812;-122.286;2024-01-16T06:15:13;16.00;80.10
72883;DHT22;61017;37.812;-122.286;2024-01-16T06:16:44;16.00;80.10
72883;DHT22;61017;37.812;-122.286;2024-01-16T06:18:15;16.00;80.30
72883;DHT22;61017;37.812;-122.286;2024-01-16T06:19:46;16.00;80.40
72883;DHT22;61017;37.812;-122.286;2024-01-16T06:21:17;15.90;80.40
72883;DHT22;61017;37.812;-122.286;2024-01-16T06:22:48;15.90;80.40
72883;DHT22;61017;37.812;-122.286;2024-01-16T06:24:19;15.90;80.40
72883;DHT22;61017;37.812;-122.286;2024-01-16T06:25:50;15.90;80.50
72883;DHT22;61017;37.812;-122.286;2024-01-16T06:27:22;15.90;80.60
72883;DHT22;61017;37.812;-122.286;2024-01-16T06:28:53;15.90;80.60
72883;DHT22;61017;37.812;-122.286;2024-01-16T06:30:24;15.90;80.70
72883;DHT22;61017;37.812;-122.286;2024-01-16T06:31:55;15.90;80.70
72883;DHT22;61017;37.812;-122.286;2024-01-16T06:33:26;15.90;80.90
72883;DHT22;61017;37.812;-122.286;2024-01-16T06:34:57;15.90;80.80
72883;DHT22;61017;37.812;-122.286;2024-01-16T06:36:28;15.90;81.00
72883;DHT22;61017;37.812;-122.286;2024-01-16T06:37:59;15.90;81.00
72883;DHT22;61017;37.812;-122.286;2024-01-16T06:39:30;15.90;81.00
72883;DHT22;61017;37.812;-122.286;2024-01-16T06:41:01;15.90;81.20
72883;DHT22;61017;37.812;-122.286;2024-01-16T06:42:32;15.90;81.10
72883;DHT22;61017;37.812;-122.286;2024-01-16T06:44:03;15.90;81.20
72883;DHT22;61017;37.812;-122.286;2024-01-16T06:45:34;15.90;81.30
72883;DHT22;61017;37.812;-122.286;2024-01-16T06:47:05;15.90;81.30
72883;DHT22;61017;37.812;-122.286;2024-01-16T06:48:37;15.90;81.40
72883;DHT22;61017;37.812;-122.286;2024-01-16T06:50:08;15.90;81.40
72883;DHT22;61017;37.812;-122.286;2024-01-16T06:51:39;15.80;81.30
72883;DHT22;61017;37.812;-122.286;2024-01-16T06:53:10;15.80;81.30
72883;DHT22;61017;37.812;-122.286;2024-01-16T06:54:41;15.80;82.20
72883;DHT22;61017;37.812;-122.286;2024-01-16T06:56:12;15.80;81.50
72883;DHT22;61017;37.812;-122.286;2024-01-16T06:57:43;15.80;81.50
72883;DHT22;61017;37.812;-122.286;2024-01-16T06:59:14;15.80;81.50
72883;DHT22;61017;37.812;-122.286;2024-01-16T07:00:46;15.80;81.60
72883;DHT22;61017;37.812;-122.286;2024-01-16T07:02:18;15.80;81.60
72883;DHT22;61017;37.812;-122.286;2024-01-16T07:03:50;15.80;81.70
72883;DHT22;61017;37.812;-122.286;2024-01-16T07:05:21;15.80;81.80
72883;DHT22;61017;37.812;-122.286;2024-01-16T07:06:52;15.80;81.80
72883;DHT22;61017;37.812;-122.286;2024-01-16T07:08:23;15.80;81.80
72883;DHT22;61017;37.812;-122.286;2024-01-16T07:09:54;15.80;81.90
72883;DHT22;61017;37.812;-122.286;2024-01-16T07:11:25;15.80;81.90
72883;DHT22;61017;37.812;-122.286;2024-01-16T07:12:57;15.80;82.00
72883;DHT22;61017;37.812;-122.286;2024-01-16T07:14:28;15.80;82.00
72883;DHT22;61017;37.812;-122.286;2024-01-16T07:15:59;15.80;82.00
72883;DHT22;61017;37.812;-122.286;2024-01-16T07:17:30;15.80;82.10
72883;DHT22;61017;37.812;-122.286;2024-01-16T07:19:01;15.80;82.10
72883;DHT22;61017;37.812;-122.286;2024-01-16T07:20:32;15.80;82.10
72883;DHT22;61017;37.812;-122.286;2024-01-16T07:22:03;15.70;82.10
72883;DHT22;61017;37.812;-122.286;2024-01-16T07:23:34;15.70;82.10
72883;DHT22;61017;37.812;-122.286;2024-01-16T07:25:06;15.70;82.10
72883;DHT22;61017;37.812;-122.286;2024-01-16T07:26:37;15.80;82.20
72883;DHT22;61017;37.812;-122.286;2024-01-16T07:28:08;15.70;82.10
72883;DHT22;61017;37.812;-122.286;2024-01-16T07:29:39;15.70;82.20
72883;DHT22;61017;37.812;-122.286;2024-01-16T07:31:10;15.70;82.30
72883;DHT22;61017;37.812;-122.286;2024-01-16T07:32:41;15.70;82.20
72883;DHT22;61017;37.812;-122.286;2024-01-16T07:34:12;15.70;82.30
72883;DHT22;61017;37.812;-122.286;2024-01-16T07:35:43;15.70;82.30
72883;DHT22;61017;37.812;-122.286;2024-01-16T07:37:14;15.70;82.30
72883;DHT22;61017;37.812;-122.286;2024-01-16T07:38:45;15.70;82.40
72883;DHT22;61017;37.812;-122.286;2024-01-16T07:40:16;15.70;82.40
72883;DHT22;61017;37.812;-122.286;2024-01-16T07:41:48;15.70;82.30
72883;DHT22;61017;37.812;-122.286;2024-01-16T07:43:19;15.70;82.40
72883;DHT22;61017;37.812;-122.286;2024-01-16T07:44:50;15.70;82.40
72883;DHT22;61017;37.812;-122.286;2024-01-16T07:46:21;15.70;82.40
72883;DHT22;61017;37.812;-122.286;2024-01-16T07:47:52;15.70;82.40
72883;DHT22;61017;37.812;-122.286;2024-01-16T07:49:23;15.70;82.40
72883;DHT22;61017;37.812;-122.286;2024-01-16T07:50:54;15.70;82.40
72883;DHT22;61017;37.812;-122.286;2024-01-16T07:52:26;15.70;82.40
72883;DHT22;61017;37.812;-122.286;2024-01-16T07:54:05;15.70;82.40
72883;DHT22;61017;37.812;-122.286;2024-01-16T07:55:36;15.70;82.50
72883;DHT22;61017;37.812;-122.286;2024-01-16T07:57:07;15.70;82.50
72883;DHT22;61017;37.812;-122.286;2024-01-16T07:58:39;15.70;82.50
72883;DHT22;61017;37.812;-122.286;2024-01-16T08:00:10;15.70;82.60
72883;DHT22;61017;37.812;-122.286;2024-01-16T08:01:41;15.70;82.50
72883;DHT22;61017;37.812;-122.286;2024-01-16T08:03:12;15.70;82.60
72883;DHT22;61017;37.812;-122.286;2024-01-16T08:04:43;15.70;82.60
72883;DHT22;61017;37.812;-122.286;2024-01-16T08:06:14;15.70;82.60
72883;DHT22;61017;37.812;-122.286;2024-01-16T08:07:46;15.70;82.60
72883;DHT22;61017;37.812;-122.286;2024-01-16T08:09:18;15.70;82.60
72883;DHT22;61017;37.812;-122.286;2024-01-16T08:10:49;15.60;82.50
72883;DHT22;61017;37.812;-122.286;2024-01-16T08:12:20;15.60;82.60
72883;DHT22;61017;37.812;-122.286;2024-01-16T08:13:51;15.60;82.50
72883;DHT22;61017;37.812;-122.286;2024-01-16T08:15:22;15.60;82.60
72883;DHT22;61017;37.812;-122.286;2024-01-16T08:16:53;15.60;82.60
72883;DHT22;61017;37.812;-122.286;2024-01-16T08:18:24;15.60;82.50
72883;DHT22;61017;37.812;-122.286;2024-01-16T08:19:55;15.60;82.60
72883;DHT22;61017;37.812;-122.286;2024-01-16T08:21:26;15.60;82.60
72883;DHT22;61017;37.812;-122.286;2024-01-16T08:22:57;15.60;82.60
72883;DHT22;61017;37.812;-122.286;2024-01-16T08:24:30;15.60;82.60
72883;DHT22;61017;37.812;-122.286;2024-01-16T08:26:01;15.60;82.60
72883;DHT22;61017;37.812;-122.286;2024-01-16T08:27:32;15.60;82.70
72883;DHT22;61017;37.812;-122.286;2024-01-16T08:29:03;15.60;82.70
72883;DHT22;61017;37.812;-122.286;2024-01-16T08:30:34;15.60;82.70
72883;DHT22;61017;37.812;-122.286;2024-01-16T08:32:05;15.60;82.80
72883;DHT22;61017;37.812;-122.286;2024-01-16T08:33:36;15.60;82.80
72883;DHT22;61017;37.812;-122.286;2024-01-16T08:35:07;15.60;82.80
72883;DHT22;61017;37.812;-122.286;2024-01-16T08:36:38;15.60;82.80
72883;DHT22;61017;37.812;-122.286;2024-01-16T08:38:09;15.60;82.80
72883;DHT22;61017;37.812;-122.286;2024-01-16T08:39:40;15.60;82.80
72883;DHT22;61017;37.812;-122.286;2024-01-16T08:41:12;15.60;82.80
72883;DHT22;61017;37.812;-122.286;2024-01-16T08:42:43;15.60;82.80
72883;DHT22;61017;37.812;-122.286;2024-01-16T08:44:15;15.60;82.80
72883;DHT22;61017;37.812;-122.286;2024-01-16T08:45:46;15.60;82.80
72883;DHT22;61017;37.812;-122.286;2024-01-16T08:47:17;15.60;82.80
72883;DHT22;61017;37.812;-122.286;2024-01-16T08:48:48;15.60;82.90
72883;DHT22;61017;37.812;-122.286;2024-01-16T08:50:19;15.50;82.70
72883;DHT22;61017;37.812;-122.286;2024-01-16T08:51:50;15.50;82.70
72883;DHT22;61017;37.812;-122.286;2024-01-16T08:53:21;15.50;82.70
72883;DHT22;61017;37.812;-122.286;2024-01-16T08:54:52;15.60;82.80
72883;DHT22;61017;37.812;-122.286;2024-01-16T08:56:23;15.50;82.70
72883;DHT22;61017;37.812;-122.286;2024-01-16T08:57:54;15.50;82.70
72883;DHT22;61017;37.812;-122.286;2024-01-16T08:59:25;15.50;82.80
72883;DHT22;61017;37.812;-122.286;2024-01-16T09:00:56;15.50;82.80
72883;DHT22;61017;37.812;-122.286;2024-01-16T09:02:27;15.50;82.90
72883;DHT22;61017;37.812;-122.286;2024-01-16T09:03:58;15.50;82.90
72883;DHT22;61017;37.812;-122.286;2024-01-16T09:05:29;15.50;82.90
72883;DHT22;61017;37.812;-122.286;2024-01-16T09:07:01;15.50;82.90
72883;DHT22;61017;37.812;-122.286;2024-01-16T09:08:32;15.50;82.90
72883;DHT22;61017;37.812;-122.286;2024-01-16T09:10:03;15.50;82.90
72883;DHT22;61017;37.812;-122.286;2024-01-16T09:11:34;15.50;83.00
72883;DHT22;61017;37.812;-122.286;2024-01-16T09:13:05;15.50;82.90
72883;DHT22;61017;37.812;-122.286;2024-01-16T09:14:36;15.50;82.90